createdAt,value
2023-08-17T00:02:58.735Z,102092.59
2023-08-17T00:06:02.498Z,102088.88
2023-08-17T00:09:07.522Z,102092.72
2023-08-17T00:12:11.445Z,102096.88
2023-08-17T00:15:15.112Z,102091.81
2023-08-17T00:18:20.259Z,102095.94
2023-08-17T00:21:24.063Z,102096.09
2023-08-17T00:24:28.091Z,102098.28
2023-08-17T00:27:31.773Z,102095.25
2023-08-17T00:30:37.339Z,102095.47
2023-08-17T00:33:42.551Z,102099.59
2023-08-17T00:36:46.593Z,102105.91
2023-08-17T00:39:50.346Z,102105.78
2023-08-17T00:42:54.091Z,102106.81
2023-08-17T00:45:58.004Z,102107.34
2023-08-17T00:49:03.211Z,102121.09
2023-08-17T00:52:07.503Z,102117.72
2023-08-17T00:55:13.764Z,102115.56
2023-08-17T00:58:17.674Z,102115.44
2023-08-17T01:01:22.287Z,102117.59
2023-08-17T01:04:27.436Z,102124.13
2023-08-17T01:07:31.185Z,102118.81
2023-08-17T01:10:43.623Z,102129.75
2023-08-17T01:13:53.528Z,102128.13
2023-08-17T01:17:02.306Z,102141.28
2023-08-17T01:20:10.614Z,102137.28
2023-08-17T01:23:15.868Z,102134.75
2023-08-17T01:26:19.795Z,102142.75
2023-08-17T01:29:23.709Z,102142.75
2023-08-17T01:32:32.716Z,102150.59
2023-08-17T01:35:40.481Z,102142.81
2023-08-17T01:38:47.108Z,102138.06
2023-08-17T01:41:50.979Z,102144.78
2023-08-17T01:44:55.165Z,102149.88
2023-08-17T01:47:59.437Z,102150.78
2023-08-17T01:51:03.120Z,102159.94
2023-08-17T01:54:09.140Z,102157.97
2023-08-17T01:57:13.163Z,102158.81
2023-08-17T02:00:17.950Z,102159.72
2023-08-17T02:03:21.569Z,102169.16
2023-08-17T02:06:25.719Z,102164.63
2023-08-17T02:09:31.116Z,102162.81
2023-08-17T02:12:35.210Z,102166.41
2023-08-17T02:15:41.036Z,102171.53
2023-08-17T02:18:44.776Z,102174.59
2023-08-17T02:21:48.539Z,102178.22
2023-08-17T02:24:53.689Z,102180.47
2023-08-17T02:27:59.353Z,102175.28
2023-08-17T02:31:03.774Z,102182.16
2023-08-17T02:34:07.561Z,102181.66
2023-08-17T02:37:11.489Z,102193.09
2023-08-17T02:40:16.911Z,102197.38
2023-08-17T02:43:20.717Z,102204.34
2023-08-17T02:46:24.507Z,102204.44
2023-08-17T02:49:28.276Z,102203.09
2023-08-17T02:52:33.995Z,102208.94
2023-08-17T02:55:39.051Z,102208.56
2023-08-17T02:58:42.998Z,102213.06
2023-08-17T03:01:47.741Z,102219.31
2023-08-17T03:04:51.501Z,102214.94
2023-08-17T03:07:55.201Z,102220.00
2023-08-17T03:11:00.316Z,102218.59
2023-08-17T03:14:04.208Z,102217.88
2023-08-17T03:17:08.274Z,102224.56
2023-08-17T03:20:12.894Z,102228.72
2023-08-17T03:23:17.301Z,102233.28
2023-08-17T03:26:23.638Z,102236.56
2023-08-17T03:29:28.243Z,102249.84
2023-08-17T03:32:32.983Z,102256.25
2023-08-17T03:35:36.750Z,102257.94
2023-08-17T03:38:40.584Z,102263.25
2023-08-17T03:41:45.661Z,102265.88
2023-08-17T03:44:50.035Z,102267.69
2023-08-17T03:47:53.822Z,102276.13
2023-08-17T03:50:59.134Z,102268.25
2023-08-17T03:54:02.887Z,102280.47
2023-08-17T03:57:07.999Z,102275.63
2023-08-17T04:00:13.239Z,102272.75
2023-08-17T04:03:19.875Z,102277.56
2023-08-17T04:06:23.814Z,102280.00
2023-08-17T04:09:27.543Z,102276.88
2023-08-17T04:12:32.776Z,102279.66
2023-08-17T04:15:36.608Z,102292.16
2023-08-17T04:18:40.280Z,102291.50
2023-08-17T04:21:44.093Z,102289.28
2023-08-17T04:24:47.976Z,102291.13
2023-08-17T04:27:53.323Z,102293.84
2023-08-17T04:30:57.656Z,102298.56
2023-08-17T04:34:01.461Z,102288.97
2023-08-17T04:37:05.961Z,102293.28
2023-08-17T04:40:11.251Z,102289.28
2023-08-17T04:43:16.782Z,102287.66
2023-08-17T04:46:20.594Z,102293.78
2023-08-17T04:49:24.443Z,102285.22
2023-08-17T04:52:28.345Z,102297.22
2023-08-17T04:55:33.194Z,102299.66
2023-08-17T04:58:38.667Z,102297.59
2023-08-17T05:01:42.811Z,102305.53
2023-08-17T05:04:48.677Z,102306.13
2023-08-17T05:07:52.810Z,102312.34
2023-08-17T05:10:56.817Z,102307.75
2023-08-17T05:14:04.238Z,102314.16
2023-08-17T05:17:08.648Z,102322.19
2023-08-17T05:20:14.430Z,102320.56
2023-08-17T05:23:18.246Z,102323.72
2023-08-17T05:26:22.699Z,102324.16
2023-08-17T05:29:28.659Z,102334.69
2023-08-17T05:32:32.614Z,102336.41
2023-08-17T05:35:36.604Z,102335.59
2023-08-17T05:38:40.358Z,102343.88
2023-08-17T05:41:44.195Z,102353.81
2023-08-17T05:44:49.447Z,102355.47
2023-08-17T05:47:54.679Z,102365.50
2023-08-17T05:50:58.636Z,102372.91
2023-08-17T05:54:02.818Z,102374.59
2023-08-17T05:57:06.660Z,102378.63
2023-08-17T06:00:13.935Z,102380.78
2023-08-17T06:03:20.031Z,102372.22
2023-08-17T06:06:23.993Z,102382.00
2023-08-17T06:09:27.774Z,102385.47
2023-08-17T06:12:31.472Z,102386.38
2023-08-17T06:15:36.581Z,102392.16
2023-08-17T06:18:41.098Z,102392.38
2023-08-17T06:21:45.118Z,102394.13
2023-08-17T06:24:48.822Z,102393.34
2023-08-17T06:27:52.614Z,102401.84
2023-08-17T06:30:58.315Z,102404.84
2023-08-17T06:34:02.270Z,102408.66
2023-08-17T06:37:06.825Z,102418.97
2023-08-17T06:40:11.382Z,102411.91
2023-08-17T06:43:16.529Z,102414.06
2023-08-17T06:46:24.124Z,102414.00
2023-08-17T06:49:28.714Z,102418.63
2023-08-17T06:52:32.486Z,102415.25
2023-08-17T06:55:36.375Z,102413.94
2023-08-17T06:58:40.094Z,102426.34
2023-08-17T07:01:45.262Z,102430.59
2023-08-17T07:04:49.137Z,102422.28
2023-08-17T07:07:54.087Z,102423.97
2023-08-17T07:10:57.968Z,102430.28
2023-08-17T07:14:01.770Z,102434.16
2023-08-17T07:17:06.973Z,102438.47
2023-08-17T07:20:16.960Z,102431.75
2023-08-17T07:23:21.248Z,102442.22
2023-08-17T07:26:25.097Z,102438.84
2023-08-17T07:29:28.844Z,102439.63
2023-08-17T07:32:34.274Z,102441.84
2023-08-17T07:35:38.227Z,102438.25
2023-08-17T07:38:41.970Z,102438.13
2023-08-17T07:41:45.693Z,102444.34
2023-08-17T07:44:49.479Z,102434.84
2023-08-17T07:47:54.854Z,102443.75
2023-08-17T07:50:58.678Z,102441.25
2023-08-17T07:54:02.657Z,102444.34
2023-08-17T07:57:06.668Z,102454.13
2023-08-17T08:00:11.157Z,102446.06
2023-08-17T08:03:18.170Z,102449.84
2023-08-17T08:06:22.762Z,102459.91
2023-08-17T08:09:26.642Z,102464.03
2023-08-17T08:12:30.563Z,102457.69
2023-08-17T08:15:35.504Z,102464.47
2023-08-17T08:18:40.595Z,102465.75
2023-08-17T08:21:44.395Z,102471.59
2023-08-17T08:24:48.430Z,102477.97
2023-08-17T08:27:52.210Z,102480.69
2023-08-17T08:30:55.952Z,102483.28
2023-08-17T08:34:01.105Z,102485.84
2023-08-17T08:37:05.351Z,102484.91
2023-08-17T08:40:14.211Z,102487.47
2023-08-17T08:43:18.165Z,102487.84
2023-08-17T08:46:23.149Z,102495.50
2023-08-17T08:49:29.467Z,102488.03
2023-08-17T08:52:36.927Z,102501.19
2023-08-17T08:55:46.067Z,102496.47
2023-08-17T08:58:54.512Z,102499.91
2023-08-17T09:01:59.828Z,102495.84
2023-08-17T09:05:07.416Z,102498.69
2023-08-17T09:08:17.395Z,102497.56
2023-08-17T09:11:21.638Z,102498.81
2023-08-17T09:14:25.474Z,102511.69
2023-08-17T09:17:29.833Z,102511.75
2023-08-17T09:20:48.337Z,102515.50
2023-08-17T09:23:59.055Z,102521.34
2023-08-17T09:27:03.337Z,102524.06
2023-08-17T09:30:09.321Z,102524.09
2023-08-17T09:33:13.230Z,102531.47
2023-08-17T09:36:22.611Z,102529.91
2023-08-17T09:39:26.499Z,102527.34
2023-08-17T09:42:30.362Z,102532.06
2023-08-17T09:45:34.131Z,102530.94
2023-08-17T09:48:38.859Z,102530.59
2023-08-17T09:51:46.300Z,102531.03
2023-08-17T09:54:50.462Z,102536.19
2023-08-17T09:57:54.592Z,102534.75
2023-08-17T10:00:59.150Z,102528.97
2023-08-17T10:04:03.798Z,102533.81
2023-08-17T10:07:10.083Z,102536.16
2023-08-17T10:10:14.904Z,102531.38
2023-08-17T10:13:23.794Z,102543.66
2023-08-17T10:16:31.963Z,102550.09
2023-08-17T10:19:41.677Z,102549.22
2023-08-17T10:22:51.331Z,102555.22
2023-08-17T10:25:55.149Z,102548.25
2023-08-17T10:29:06.692Z,102550.47
2023-08-17T10:32:17.155Z,102548.97
2023-08-17T10:35:21.568Z,102555.22
2023-08-17T10:38:26.704Z,102551.91
2023-08-17T10:41:30.530Z,102552.22
2023-08-17T10:44:41.536Z,102552.75
2023-08-17T10:47:45.303Z,102561.00
2023-08-17T10:51:01.911Z,102554.75
2023-08-17T10:54:08.123Z,102551.38
2023-08-17T10:57:31.458Z,102550.47
2023-08-17T11:00:37.593Z,102550.78
2023-08-17T11:03:41.676Z,102546.19
2023-08-17T11:06:45.897Z,102546.50
2023-08-17T11:09:51.264Z,102548.69
2023-08-17T11:12:58.081Z,102546.72
2023-08-17T11:16:04.150Z,102545.03
2023-08-17T11:19:13.537Z,102561.31
2023-08-17T11:22:20.185Z,102546.09
2023-08-17T11:25:33.016Z,102547.81
2023-08-17T11:31:50.897Z,102557.16
2023-08-17T11:34:59.412Z,102549.81
2023-08-17T11:38:08.085Z,102548.34
2023-08-17T11:41:19.237Z,102552.28
2023-08-17T11:44:24.900Z,102557.59
2023-08-17T11:47:32.624Z,102556.44
2023-08-17T11:50:40.080Z,102554.47
2023-08-17T11:53:49.452Z,102542.44
2023-08-17T11:56:55.043Z,102559.78
2023-08-17T12:00:00.657Z,102560.97
2023-08-17T12:03:05.327Z,102567.00
2023-08-17T12:06:09.261Z,102562.91
2023-08-17T12:09:14.994Z,102568.88
2023-08-17T12:12:22.967Z,102563.91
2023-08-17T12:15:27.450Z,102566.44
2023-08-17T12:18:32.904Z,102572.56
2023-08-17T12:21:36.634Z,102579.81
2023-08-17T12:24:40.883Z,102580.59
2023-08-17T12:27:49.725Z,102580.75
2023-08-17T12:31:00.804Z,102571.66
2023-08-17T12:34:04.666Z,102571.47
2023-08-17T12:37:10.803Z,102574.00
2023-08-17T12:40:14.549Z,102579.69
2023-08-17T12:43:20.056Z,102571.25
2023-08-17T12:46:23.998Z,102570.09
2023-08-17T12:49:27.864Z,102564.56
2023-08-17T12:52:31.681Z,102563.91
2023-08-17T12:55:35.459Z,102565.16
2023-08-17T12:58:40.663Z,102566.22
2023-08-17T13:01:44.525Z,102571.31
2023-08-17T13:04:48.366Z,102572.69
2023-08-17T13:07:52.231Z,102565.47
2023-08-17T13:10:56.050Z,102573.63
2023-08-17T13:14:01.213Z,102579.53
2023-08-17T13:17:05.455Z,102571.53
2023-08-17T13:20:10.900Z,102577.91
2023-08-17T13:23:14.627Z,102582.38
2023-08-17T13:26:18.471Z,102585.91
2023-08-17T13:29:23.699Z,102589.13
2023-08-17T13:32:27.988Z,102589.19
2023-08-17T13:35:32.296Z,102597.09
2023-08-17T13:38:36.074Z,102597.09
2023-08-17T13:41:39.931Z,102600.75
2023-08-17T13:44:45.054Z,102592.22
2023-08-17T13:47:49.002Z,102592.94
2023-08-17T13:50:53.041Z,102594.63
2023-08-17T13:53:56.774Z,102592.81
2023-08-17T13:57:00.581Z,102584.44
2023-08-17T14:00:06.485Z,102592.16
2023-08-17T14:03:10.350Z,102588.00
2023-08-17T14:06:14.187Z,102593.66
2023-08-17T14:09:17.919Z,102585.41
2023-08-17T14:12:21.674Z,102590.47
2023-08-17T14:15:26.891Z,102590.41
2023-08-17T14:18:30.654Z,102588.50
2023-08-17T14:21:34.444Z,102584.06
2023-08-17T14:24:38.221Z,102600.53
2023-08-17T14:27:42.152Z,102596.63
2023-08-17T14:30:52.518Z,102602.94
2023-08-17T14:33:56.750Z,102605.53
2023-08-17T14:37:00.529Z,102598.16
2023-08-17T14:40:04.467Z,102596.94
2023-08-17T14:43:08.300Z,102596.69
2023-08-17T14:46:15.195Z,102606.53
2023-08-17T14:49:19.645Z,102609.50
2023-08-17T14:52:23.448Z,102594.91
2023-08-17T14:55:27.226Z,102609.97
2023-08-17T14:58:31.122Z,102601.81
2023-08-17T15:01:36.515Z,102606.69
2023-08-17T15:04:40.450Z,102599.22
2023-08-17T15:07:44.237Z,102590.63
2023-08-17T15:10:49.739Z,102587.19
2023-08-17T15:13:53.513Z,102594.00
2023-08-17T15:16:58.844Z,102584.97
2023-08-17T15:20:03.377Z,102590.63
2023-08-17T15:23:07.292Z,102595.41
2023-08-17T15:26:11.879Z,102610.75
2023-08-17T15:29:15.811Z,102608.22
2023-08-17T15:32:20.989Z,102607.75
2023-08-17T15:35:24.830Z,102606.03
2023-08-17T15:38:28.530Z,102611.03
2023-08-17T15:41:32.897Z,102614.41
2023-08-17T15:44:36.709Z,102620.97
2023-08-17T15:47:41.907Z,102614.84
2023-08-17T15:50:45.767Z,102622.91
2023-08-17T15:53:49.632Z,102623.75
2023-08-17T15:56:53.412Z,102618.84
2023-08-17T15:59:57.436Z,102619.00
2023-08-17T16:03:02.709Z,102630.28
2023-08-17T16:06:06.724Z,102639.09
2023-08-17T16:09:10.748Z,102631.75
2023-08-17T16:12:14.475Z,102630.16
2023-08-17T16:15:18.350Z,102637.44
2023-08-17T16:18:23.546Z,102636.19
2023-08-17T16:21:27.408Z,102641.75
2023-08-17T16:24:31.110Z,102656.47
2023-08-17T16:27:38.907Z,102661.75
2023-08-17T16:30:43.044Z,102651.66
2023-08-17T16:33:48.255Z,102660.59
2023-08-17T16:36:51.979Z,102665.13
2023-08-17T16:39:55.716Z,102666.50
2023-08-17T16:43:01.143Z,102664.06
2023-08-17T16:46:05.273Z,102674.69
2023-08-17T16:49:10.443Z,102674.63
2023-08-17T16:52:14.320Z,102677.41
2023-08-17T16:55:18.740Z,102679.59
2023-08-17T16:58:22.652Z,102683.28
2023-08-17T17:01:27.681Z,102687.34
2023-08-17T17:04:33.048Z,102686.56
2023-08-17T17:07:37.105Z,102685.03
2023-08-17T17:10:40.853Z,102692.47
2023-08-17T17:13:44.588Z,102688.81
2023-08-17T17:16:48.300Z,102698.59
2023-08-17T17:19:53.500Z,102696.13
2023-08-17T17:22:57.577Z,102692.16
2023-08-17T17:26:08.554Z,102704.44
2023-08-17T17:29:12.540Z,102703.94
2023-08-17T17:32:16.531Z,102695.41
2023-08-17T17:35:21.760Z,102694.38
2023-08-17T17:38:25.601Z,102707.91
2023-08-17T17:41:29.368Z,102701.00
2023-08-17T17:44:33.167Z,102708.22
2023-08-17T17:47:37.172Z,102706.34
2023-08-17T17:50:42.299Z,102709.56
2023-08-17T17:53:46.323Z,102710.47
2023-08-17T17:56:50.915Z,102715.16
2023-08-17T17:59:55.652Z,102719.47
2023-08-17T18:03:11.150Z,102708.59
2023-08-17T18:06:16.342Z,102722.22
2023-08-17T18:09:20.313Z,102720.50
2023-08-17T18:12:24.349Z,102714.22
2023-08-17T18:15:28.060Z,102719.25
2023-08-17T18:18:33.691Z,102721.19
2023-08-17T18:21:38.918Z,102732.25
2023-08-17T18:24:42.697Z,102733.72
2023-08-17T18:27:46.438Z,102733.69
2023-08-17T18:30:50.273Z,102739.50
2023-08-17T18:33:54.287Z,102730.94
2023-08-17T18:36:59.510Z,102741.66
2023-08-17T18:40:03.680Z,102735.97
2023-08-17T18:43:07.516Z,102736.94
2023-08-17T18:46:11.432Z,102739.78
2023-08-17T18:49:15.297Z,102742.50
2023-08-17T18:52:20.868Z,102760.47
2023-08-17T18:55:24.674Z,102751.81
2023-08-17T18:58:28.491Z,102760.09
2023-08-17T19:01:32.303Z,102757.50
2023-08-17T19:04:36.097Z,102756.22
2023-08-17T19:07:41.446Z,102755.88
2023-08-17T19:10:45.325Z,102757.16
2023-08-17T19:13:49.156Z,102751.03
2023-08-17T19:16:52.963Z,102758.25
2023-08-17T19:19:57.764Z,102766.84
2023-08-17T19:23:03.839Z,102769.94
2023-08-17T19:26:07.916Z,102769.41
2023-08-17T19:29:11.803Z,102778.22
2023-08-17T19:32:15.516Z,102784.00
2023-08-17T19:35:19.461Z,102780.63
2023-08-17T19:38:24.658Z,102782.56
2023-08-17T19:41:28.446Z,102783.06
2023-08-17T19:44:33.428Z,102786.56
2023-08-17T19:47:37.414Z,102803.59
2023-08-17T19:50:41.658Z,102800.16
2023-08-17T19:53:47.312Z,102804.03
2023-08-17T19:56:51.048Z,102809.34
2023-08-17T19:59:54.897Z,102800.22
2023-08-17T20:02:58.736Z,102792.69
2023-08-17T20:06:02.966Z,102799.03
2023-08-17T20:09:08.319Z,102803.31
2023-08-17T20:12:12.245Z,102810.41
2023-08-17T20:15:16.151Z,102806.44
2023-08-17T20:18:19.899Z,102807.31
2023-08-17T20:21:23.660Z,102809.31
2023-08-17T20:24:29.265Z,102810.34
2023-08-17T20:27:33.127Z,102814.44
2023-08-17T20:30:36.922Z,102812.25
2023-08-17T20:33:43.506Z,102811.31
2023-08-17T20:36:47.764Z,102812.28
2023-08-17T20:39:53.590Z,102816.97
2023-08-17T20:42:57.518Z,102819.22
2023-08-17T20:46:01.442Z,102815.72
2023-08-17T20:49:05.888Z,102820.66
2023-08-17T20:52:09.991Z,102817.31
2023-08-17T20:55:15.227Z,102824.34
2023-08-17T20:58:19.419Z,102814.13
2023-08-17T21:01:23.336Z,102830.38
2023-08-17T21:04:27.555Z,102822.63
2023-08-17T21:07:31.672Z,102825.25
2023-08-17T21:10:37.597Z,102824.72
2023-08-17T21:13:41.395Z,102832.38
2023-08-17T21:16:45.295Z,102826.19
2023-08-17T21:19:49.188Z,102826.91
2023-08-17T21:22:52.974Z,102824.34
2023-08-17T21:25:58.153Z,102833.41
2023-08-17T21:29:02.002Z,102833.91
2023-08-17T21:32:06.401Z,102834.41
2023-08-17T21:35:12.702Z,102837.00
2023-08-17T21:38:16.617Z,102835.31
2023-08-17T21:41:21.859Z,102831.38
2023-08-17T21:44:26.674Z,102836.97
2023-08-17T21:47:30.954Z,102835.97
2023-08-17T21:50:38.960Z,102839.94
2023-08-17T21:53:42.791Z,102845.69
2023-08-17T21:56:47.950Z,102841.69
2023-08-17T21:59:51.854Z,102839.09
2023-08-17T22:02:55.891Z,102828.50
2023-08-17T22:06:03.852Z,102842.63
2023-08-17T22:09:07.876Z,102845.66
2023-08-17T22:12:13.043Z,102838.78
2023-08-17T22:15:17.084Z,102834.50
2023-08-17T22:18:20.931Z,102841.31
2023-08-17T22:21:24.963Z,102834.53
2023-08-17T22:24:35.064Z,102847.44
2023-08-17T22:27:47.048Z,102845.97
2023-08-17T22:30:50.872Z,102846.81
2023-08-17T22:33:54.762Z,102842.13
2023-08-17T22:36:58.482Z,102845.03
2023-08-17T22:40:02.202Z,102842.66
2023-08-17T22:43:07.383Z,102848.47
2023-08-17T22:46:11.284Z,102840.22
2023-08-17T22:49:15.651Z,102839.63
2023-08-17T22:52:19.439Z,102838.94
2023-08-17T22:55:23.285Z,102845.13
2023-08-17T22:58:30.709Z,102843.66
2023-08-17T23:01:34.926Z,102845.28
2023-08-17T23:04:38.774Z,102841.53
2023-08-17T23:07:42.542Z,102840.97
2023-08-17T23:10:46.395Z,102847.63
2023-08-17T23:13:51.719Z,102844.25
2023-08-17T23:16:55.509Z,102839.84
2023-08-17T23:19:59.246Z,102843.97
2023-08-17T23:23:03.049Z,102848.16
2023-08-17T23:26:07.112Z,102844.00
2023-08-17T23:29:12.619Z,102842.81
2023-08-17T23:32:27.022Z,102838.31
2023-08-17T23:35:32.418Z,102846.69
2023-08-17T23:38:36.512Z,102851.22
2023-08-17T23:41:40.223Z,102857.75
2023-08-17T23:44:45.334Z,102856.03
2023-08-17T23:47:49.208Z,102857.31
2023-08-17T23:50:53.139Z,102857.31
2023-08-17T23:53:56.931Z,102859.72
2023-08-17T23:57:00.600Z,102863.16
